createdAt,value
2018-11-21T06:20:54.990Z,97.20
2018-11-21T06:23:23.533Z,98.50
2018-11-21T06:25:51.991Z,98.00
2018-11-21T06:28:20.533Z,97.40
2018-11-21T06:30:49.777Z,97.00
2018-11-21T06:33:18.301Z,96.70
2018-11-21T06:35:46.872Z,96.60
2018-11-21T06:38:15.435Z,96.20
2018-11-21T06:40:43.910Z,96.00
2018-11-21T06:43:12.463Z,95.80
2018-11-21T06:45:40.951Z,95.90
2018-11-21T06:48:09.419Z,95.80
2018-11-21T06:50:37.945Z,95.80
2018-11-21T06:53:07.254Z,96.00
2018-11-21T06:55:35.807Z,96.10
2018-11-21T06:58:04.398Z,96.00
2018-11-21T07:00:33.050Z,96.10
2018-11-21T07:03:01.778Z,95.80
2018-11-21T07:05:30.307Z,95.90
2018-11-21T07:08:02.055Z,95.70
2018-11-21T07:10:30.599Z,95.90
2018-11-21T07:12:59.096Z,95.70
2018-11-21T07:15:28.056Z,95.80
2018-11-21T07:17:56.656Z,95.90
2018-11-21T07:20:25.189Z,96.00
2018-11-21T07:22:53.828Z,95.70
2018-11-21T07:25:23.270Z,95.80
2018-11-21T07:27:52.224Z,95.90
2018-11-21T07:30:21.037Z,96.00
2018-11-21T07:32:49.847Z,95.70
2018-11-21T07:35:18.618Z,95.90
2018-11-21T07:37:47.191Z,95.90
2018-11-21T07:40:16.204Z,96.00
2018-11-21T07:42:44.703Z,95.90
2018-11-21T07:45:14.587Z,95.70
2018-11-21T07:47:43.769Z,95.70
2018-11-21T07:50:14.729Z,95.90
2018-11-21T07:52:43.806Z,95.60
2018-11-21T07:55:13.436Z,95.60
2018-11-21T07:57:46.206Z,95.60
2018-11-21T08:00:51.020Z,95.60
2018-11-21T08:03:20.100Z,95.70
2018-11-21T08:05:51.832Z,95.80
2018-11-21T08:08:45.377Z,95.80
2018-11-21T08:11:35.747Z,95.50
2018-11-21T08:14:30.451Z,95.30
2018-11-21T08:17:16.947Z,95.40
2018-11-21T08:20:03.322Z,95.50
2018-11-21T08:22:39.285Z,95.70
2018-11-21T08:25:20.223Z,95.90
2018-11-21T08:28:06.558Z,95.70
2018-11-21T08:30:35.096Z,95.70
2018-11-21T08:33:03.550Z,95.60
2018-11-21T08:35:32.071Z,95.70
2018-11-21T08:38:00.985Z,95.90
2018-11-21T08:40:29.602Z,95.90
2018-11-21T08:42:58.123Z,95.70
2018-11-21T08:45:26.666Z,95.80
2018-11-21T08:47:55.124Z,95.70
2018-11-21T08:50:23.763Z,95.50
2018-11-21T08:52:52.212Z,95.50
2018-11-21T08:55:20.731Z,95.50
2018-11-21T08:58:14.653Z,95.60
2018-11-21T09:00:20.826Z,95.80
2018-11-21T09:02:49.566Z,95.60
2018-11-21T09:05:18.471Z,95.60
2018-11-21T09:07:47.096Z,95.80
2018-11-21T09:10:17.496Z,95.90
2018-11-21T09:12:44.443Z,95.70
2018-11-21T09:15:14.511Z,95.70
2018-11-21T09:17:43.607Z,95.50
2018-11-21T09:20:12.910Z,95.40
2018-11-21T09:22:41.402Z,95.40
2018-11-21T09:25:11.223Z,95.50
2018-11-21T09:27:40.393Z,95.60
2018-11-21T09:30:20.406Z,95.60
2018-11-21T09:35:38.170Z,95.80
2018-11-21T09:38:06.790Z,95.60
2018-11-21T09:40:35.361Z,95.40
2018-11-21T09:43:04.049Z,95.50
2018-11-21T09:45:32.543Z,95.40
2018-11-21T09:48:02.342Z,95.50
2018-11-21T09:50:31.357Z,95.50
2018-11-21T09:52:59.832Z,95.60
2018-11-21T09:55:28.345Z,95.50
2018-11-21T09:57:56.983Z,95.50
2018-11-21T10:01:02.513Z,95.50
2018-11-21T10:03:32.765Z,95.30
2018-11-21T10:06:14.429Z,95.60
2018-11-21T10:08:59.950Z,95.50
2018-11-21T10:11:47.691Z,95.40
2018-11-21T10:14:16.166Z,95.40
2018-11-21T10:16:45.189Z,95.50
2018-11-21T10:19:13.787Z,95.60
2018-11-21T10:21:42.259Z,95.50
2018-11-21T10:24:10.802Z,95.20
2018-11-21T10:26:39.703Z,95.30
2018-11-21T10:29:08.327Z,95.40
2018-11-21T10:31:37.165Z,95.40
2018-11-21T10:34:05.746Z,95.40
2018-11-21T10:36:34.491Z,95.30
2018-11-21T10:39:04.974Z,95.40
2018-11-21T10:41:32.993Z,95.30
2018-11-21T10:44:00.453Z,95.40
2018-11-21T10:46:29.082Z,95.40
2018-11-21T10:48:57.957Z,95.40
2018-11-21T10:51:26.411Z,95.30
2018-11-21T10:53:54.965Z,95.40
2018-11-21T10:56:23.630Z,95.00
2018-11-21T10:58:52.376Z,95.00
2018-11-21T11:01:43.136Z,94.90
2018-11-21T11:04:32.116Z,95.00
2018-11-21T11:07:26.131Z,95.20
2018-11-21T11:10:32.094Z,95.30
2018-11-21T11:13:18.182Z,95.10
2018-11-21T11:16:05.418Z,94.80
2018-11-21T11:18:58.922Z,94.90
2018-11-21T11:21:54.981Z,94.90
2018-11-21T11:24:41.193Z,95.00
2018-11-21T11:27:29.325Z,95.00
2018-11-21T11:30:20.301Z,95.10
2018-11-21T11:33:02.484Z,94.70
2018-11-21T11:35:56.515Z,94.70
2018-11-21T11:38:42.763Z,94.70
2018-11-21T11:41:36.576Z,95.10
2018-11-21T11:44:18.037Z,94.80
2018-11-21T11:47:14.514Z,94.80
2018-11-21T11:49:58.561Z,94.40
2018-11-21T11:53:01.114Z,94.40
2018-11-21T11:55:55.082Z,94.40
2018-11-21T11:58:37.701Z,94.40
2018-11-21T12:01:41.587Z,94.50
2018-11-21T12:04:27.686Z,94.20
2018-11-21T12:07:21.467Z,94.40
2018-11-21T12:10:18.161Z,94.50
2018-11-21T12:13:23.945Z,94.20
2018-11-21T12:16:10.465Z,94.10
2018-11-21T12:18:58.098Z,94.20
2018-11-21T12:21:55.164Z,94.20
2018-11-21T12:24:46.402Z,94.10
2018-11-21T12:27:32.745Z,94.30
2018-11-21T12:30:29.147Z,94.40
2018-11-21T12:33:15.527Z,94.30
2018-11-21T12:36:01.703Z,94.20
2018-11-21T12:38:49.911Z,94.30
2018-11-21T12:41:36.171Z,94.20
2018-11-21T12:44:42.072Z,94.00
2018-11-21T12:47:31.125Z,94.20
2018-11-21T12:50:24.534Z,94.40
2018-11-21T12:53:11.072Z,94.20
2018-11-21T12:55:57.755Z,94.40
2018-11-21T12:58:45.431Z,94.30
2018-11-21T13:01:35.746Z,94.70
2018-11-21T13:04:23.386Z,94.70
2018-11-21T13:07:16.608Z,94.30
2018-11-21T13:09:56.761Z,94.20
2018-11-21T13:12:44.149Z,94.00
2018-11-21T13:15:50.426Z,94.10
2018-11-21T13:18:36.885Z,94.40
2018-11-21T13:21:27.010Z,94.10
2018-11-21T13:24:13.420Z,94.00
2018-11-21T13:26:59.613Z,93.80
2018-11-21T13:29:45.644Z,93.90
2018-11-21T13:32:41.906Z,94.50
2018-11-21T13:35:23.755Z,94.30
2018-11-21T13:38:11.690Z,94.30
2018-11-21T13:40:58.139Z,94.10
2018-11-21T13:43:57.123Z,94.20
2018-11-21T13:46:54.106Z,94.20
2018-11-21T13:52:58.069Z,94.50
2018-11-21T13:55:25.294Z,94.00
2018-11-21T13:57:56.320Z,94.20
2018-11-21T14:00:27.919Z,94.20
2018-11-21T14:02:56.628Z,94.20
2018-11-21T14:15:02.767Z,94.20
2018-11-21T14:17:50.838Z,94.30
2018-11-21T14:20:40.582Z,94.30
2018-11-21T14:23:09.170Z,94.40
2018-11-21T14:25:50.393Z,94.40
2018-11-21T14:28:20.534Z,94.40
2018-11-21T14:30:54.503Z,94.40
2018-11-21T14:33:26.243Z,94.30
2018-11-21T14:35:58.140Z,94.10
2018-11-21T14:38:26.839Z,94.20
2018-11-21T14:41:01.052Z,94.50
2018-11-21T14:43:32.985Z,94.60
2018-11-21T14:46:06.624Z,94.70
2018-11-21T14:48:35.353Z,94.60
2018-11-21T14:51:49.323Z,94.40
2018-11-21T14:54:20.014Z,94.40
2018-11-21T14:56:51.058Z,94.50
2018-11-21T14:59:22.402Z,94.60
2018-11-21T15:01:53.500Z,94.60
2018-11-21T15:04:24.530Z,94.60
2018-11-21T15:06:53.172Z,94.80
2018-11-21T15:09:21.938Z,94.50
2018-11-21T15:11:50.517Z,94.60
2018-11-21T15:14:18.941Z,94.20
2018-11-21T15:16:47.483Z,94.60
2018-11-21T15:19:16.042Z,94.50
2018-11-21T15:21:44.661Z,94.50
2018-11-21T15:24:13.123Z,94.10
2018-11-21T15:26:41.929Z,94.10
2018-11-21T15:32:13.341Z,94.40
2018-11-21T15:34:41.812Z,94.20
2018-11-21T15:37:16.207Z,94.30
2018-11-21T15:39:44.762Z,94.30
2018-11-21T15:42:13.318Z,94.40
2018-11-21T15:44:51.293Z,94.80
2018-11-21T15:47:19.797Z,94.60
2018-11-21T15:49:48.670Z,94.70
2018-11-21T15:52:17.043Z,94.90
2018-11-21T15:54:45.587Z,94.90
2018-11-21T15:57:14.206Z,94.90
2018-11-21T16:00:07.096Z,95.00
2018-11-21T16:02:35.749Z,94.90
2018-11-21T16:05:10.127Z,95.00
2018-11-21T16:07:37.666Z,95.00
2018-11-21T16:10:10.183Z,95.10
2018-11-21T16:12:37.352Z,95.10
2018-11-21T16:15:09.256Z,95.00
2018-11-21T16:17:53.215Z,95.10
2018-11-21T16:20:21.806Z,95.20
2018-11-21T16:22:50.337Z,95.10
2018-11-21T16:25:20.043Z,95.30
2018-11-21T16:27:48.764Z,95.30
2018-11-21T16:30:21.643Z,95.40
2018-11-21T16:32:50.483Z,95.30
2018-11-21T16:35:19.096Z,95.30
2018-11-21T16:37:50.986Z,95.50
2018-11-21T16:40:21.454Z,95.40
2018-11-21T16:42:50.462Z,95.60
2018-11-21T16:45:21.202Z,95.30
2018-11-21T16:47:49.725Z,95.50
2018-11-21T16:50:19.138Z,95.40
2018-11-21T16:52:50.600Z,95.40
2018-11-21T16:55:20.654Z,95.50
2018-11-21T16:57:49.799Z,95.50
2018-11-21T17:00:19.930Z,95.50
2018-11-21T17:02:48.799Z,95.40
2018-11-21T17:05:18.538Z,95.60
2018-11-21T17:07:47.270Z,95.60
2018-11-21T17:10:17.081Z,95.50
2018-11-21T17:12:46.212Z,95.50
2018-11-21T17:15:16.257Z,95.60
2018-11-21T17:17:44.831Z,95.70
2018-11-21T17:20:16.179Z,95.70
2018-11-21T17:22:45.466Z,95.60
2018-11-21T17:25:15.381Z,95.90
2018-11-21T17:27:44.628Z,95.70
2018-11-21T17:30:20.426Z,95.80
2018-11-21T17:32:49.227Z,95.80
2018-11-21T17:35:18.789Z,95.60
2018-11-21T17:37:47.665Z,95.70
2018-11-21T17:40:18.851Z,95.80
2018-11-21T17:42:47.346Z,95.70
2018-11-21T17:45:16.646Z,95.70
2018-11-21T17:47:45.192Z,95.80
2018-11-21T17:50:15.576Z,95.80
2018-11-21T17:52:44.405Z,96.00
2018-11-21T17:55:14.567Z,96.20
2018-11-21T17:57:43.050Z,96.30
2018-11-21T18:00:16.880Z,96.50
2018-11-21T18:02:45.526Z,96.60
2018-11-21T18:05:15.544Z,96.70
2018-11-21T18:07:44.117Z,97.10
2018-11-21T18:10:15.048Z,97.30
2018-11-21T18:12:44.153Z,97.20
2018-11-21T18:15:13.425Z,97.30
2018-11-21T18:17:43.252Z,97.40
2018-11-21T18:20:15.872Z,97.50
2018-11-21T18:22:44.014Z,97.60
2018-11-21T18:25:20.652Z,97.50
2018-11-21T18:27:49.480Z,97.60
2018-11-21T18:30:22.656Z,97.40
2018-11-21T18:32:51.134Z,97.70
2018-11-21T18:35:21.085Z,97.70
2018-11-21T18:37:49.656Z,97.60
2018-11-21T18:40:22.581Z,97.40
2018-11-21T18:42:51.218Z,97.40
2018-11-21T18:48:55.412Z,97.30
2018-11-21T18:51:24.004Z,97.30
2018-11-21T18:53:54.918Z,97.10
2018-11-21T18:56:45.526Z,97.00
2018-11-21T18:59:48.626Z,97.10
2018-11-21T19:02:20.346Z,97.10
2018-11-21T19:04:48.869Z,97.10
2018-11-21T19:07:20.641Z,97.20
2018-11-21T19:09:49.052Z,96.70
2018-11-21T19:12:17.573Z,96.70
2018-11-21T19:14:46.075Z,96.90
2018-11-21T19:17:14.588Z,97.00
2018-11-21T19:19:43.056Z,96.80
2018-11-21T19:22:11.576Z,96.80
2018-11-21T19:24:55.941Z,97.10
2018-11-21T19:27:24.678Z,97.00
2018-11-21T19:29:53.137Z,97.10
2018-11-21T19:32:22.230Z,97.00
2018-11-21T19:34:50.788Z,97.30
2018-11-21T19:37:27.353Z,97.30
2018-11-21T19:39:55.911Z,97.40
2018-11-21T19:42:24.679Z,97.70
2018-11-21T19:44:53.504Z,98.10
2018-11-21T19:47:21.920Z,98.30
2018-11-21T19:49:50.388Z,97.90
2018-11-21T19:52:24.910Z,98.00
2018-11-21T19:54:53.570Z,98.20
2018-11-21T19:57:22.042Z,98.20
2018-11-21T19:59:56.971Z,98.00
2018-11-21T20:02:25.388Z,97.80
2018-11-21T20:04:53.896Z,98.10
2018-11-21T20:07:22.741Z,98.00
2018-11-21T20:09:51.263Z,98.30
2018-11-21T20:12:19.855Z,98.50
2018-11-21T20:14:48.315Z,98.80
2018-11-21T20:17:16.866Z,98.80
2018-11-21T20:19:45.264Z,98.60
2018-11-21T20:22:13.721Z,98.50
2018-11-21T20:24:42.190Z,98.40
2018-11-21T20:27:10.615Z,98.30
2018-11-21T20:29:39.070Z,98.40
2018-11-21T20:32:07.595Z,98.30
2018-11-21T20:34:36.088Z,98.50
2018-11-21T20:37:04.640Z,98.60
2018-11-21T20:39:33.138Z,98.20
2018-11-21T20:42:02.802Z,98.30
2018-11-21T20:44:31.533Z,98.40
2018-11-21T20:46:59.997Z,98.60
2018-11-21T20:49:28.508Z,98.20
2018-11-21T20:51:56.952Z,98.60
2018-11-21T20:54:25.635Z,98.20
2018-11-21T20:56:54.183Z,98.50
2018-11-21T20:59:22.762Z,98.90
2018-11-21T21:01:51.334Z,98.80
2018-11-21T21:04:19.851Z,98.80
2018-11-21T21:06:48.336Z,98.00
2018-11-21T21:09:16.935Z,98.60
2018-11-21T21:11:45.541Z,98.20
2018-11-21T21:14:14.411Z,98.00
2018-11-21T21:16:42.898Z,97.90
2018-11-21T21:19:13.354Z,98.00
2018-11-21T21:21:41.982Z,98.00
2018-11-21T21:24:10.473Z,98.00
2018-11-21T21:26:39.252Z,98.10
2018-11-21T21:29:07.716Z,98.20
2018-11-21T21:31:36.355Z,98.10
2018-11-21T21:34:05.034Z,97.90
2018-11-21T21:36:33.563Z,98.00
2018-11-21T21:39:02.072Z,98.10
2018-11-21T21:41:30.613Z,98.30
2018-11-21T21:43:59.249Z,98.60
2018-11-21T21:46:28.420Z,98.40
2018-11-21T21:48:56.876Z,98.20
2018-11-21T21:51:25.417Z,98.20
2018-11-21T21:53:54.032Z,98.40
2018-11-21T21:56:22.546Z,98.60
2018-11-21T21:58:51.078Z,98.70
2018-11-21T22:01:19.587Z,98.70
2018-11-21T22:03:48.145Z,98.80
2018-11-21T22:06:16.687Z,98.80
2018-11-21T22:08:45.212Z,99.00
2018-11-21T22:11:13.698Z,99.00
2018-11-21T22:13:42.818Z,99.20
2018-11-21T22:16:11.381Z,99.30
2018-11-21T22:18:39.878Z,99.30
2018-11-21T22:21:08.349Z,99.00
2018-11-21T22:23:36.887Z,98.90
2018-11-21T22:26:05.584Z,98.80
2018-11-21T22:28:34.059Z,99.00
2018-11-21T22:31:02.531Z,98.90
2018-11-21T22:33:30.996Z,99.00
2018-11-21T22:36:02.827Z,99.20
2018-11-21T22:38:30.961Z,99.20
2018-11-21T22:40:56.612Z,99.30
2018-11-21T22:43:25.217Z,99.20
2018-11-21T22:45:53.743Z,99.10
2018-11-21T22:48:22.321Z,98.90
2018-11-21T22:50:50.904Z,99.00
2018-11-21T22:53:19.386Z,98.80
2018-11-21T22:55:48.304Z,98.80
2018-11-21T22:58:16.839Z,98.80
2018-11-21T23:00:47.376Z,98.90
2018-11-21T23:03:16.769Z,99.10
2018-11-21T23:05:45.219Z,99.10
2018-11-21T23:08:13.721Z,99.20
2018-11-21T23:10:42.269Z,99.10
2018-11-21T23:13:10.741Z,99.00
2018-11-21T23:15:39.890Z,98.90
2018-11-21T23:18:08.626Z,98.70
2018-11-21T23:20:37.538Z,98.80
2018-11-21T23:23:06.358Z,99.00
2018-11-21T23:25:34.820Z,99.10
2018-11-21T23:28:03.357Z,98.90
2018-11-21T23:30:31.792Z,98.70
2018-11-21T23:33:00.313Z,98.70
2018-11-21T23:35:28.835Z,98.70
2018-11-21T23:37:57.286Z,98.70
2018-11-21T23:40:25.775Z,98.70
2018-11-21T23:42:54.296Z,98.60
2018-11-21T23:45:22.783Z,98.80
2018-11-21T23:47:51.577Z,98.90
2018-11-21T23:50:20.026Z,99.10
2018-11-21T23:52:48.576Z,99.10
2018-11-21T23:55:18.615Z,99.20
2018-11-21T23:57:47.111Z,98.90
